sensor_id;sensor_type;location;lat;lon;timestamp;P1;durP1;ratioP1;P2;durP2;ratioP2
50393;SDS011;36308;46.312;25.288;2022-11-15T00:00:51;26.30;;;14.73;;
50393;SDS011;36308;46.312;25.288;2022-11-15T00:03:18;25.85;;;15.00;;
50393;SDS011;36308;46.312;25.288;2022-11-15T00:05:45;26.58;;;15.43;;
50393;SDS011;36308;46.312;25.288;2022-11-15T00:08:11;25.83;;;14.10;;
50393;SDS011;36308;46.312;25.288;2022-11-15T00:10:36;24.92;;;13.75;;
50393;SDS011;36308;46.312;25.288;2022-11-15T00:13:06;28.02;;;14.70;;
50393;SDS011;36308;46.312;25.288;2022-11-15T00:15:34;25.17;;;14.70;;
50393;SDS011;36308;46.312;25.288;2022-11-15T00:18:06;26.15;;;14.30;;
50393;SDS011;36308;46.312;25.288;2022-11-15T00:20:37;27.00;;;14.75;;
50393;SDS011;36308;46.312;25.288;2022-11-15T00:23:03;26.48;;;14.63;;
50393;SDS011;36308;46.312;25.288;2022-11-15T00:25:29;24.92;;;13.10;;
50393;SDS011;36308;46.312;25.288;2022-11-15T00:27:55;27.38;;;12.73;;
50393;SDS011;36308;46.312;25.288;2022-11-15T00:30:21;23.30;;;12.63;;
50393;SDS011;36308;46.312;25.288;2022-11-15T00:32:47;24.15;;;12.43;;
50393;SDS011;36308;46.312;25.288;2022-11-15T00:35:12;25.80;;;12.88;;
50393;SDS011;36308;46.312;25.288;2022-11-15T00:37:38;23.85;;;12.68;;
50393;SDS011;36308;46.312;25.288;2022-11-15T00:40:03;23.90;;;13.10;;
50393;SDS011;36308;46.312;25.288;2022-11-15T00:42:29;26.35;;;12.65;;
50393;SDS011;36308;46.312;25.288;2022-11-15T00:44:55;22.55;;;12.35;;
50393;SDS011;36308;46.312;25.288;2022-11-15T00:47:20;23.50;;;12.50;;
50393;SDS011;36308;46.312;25.288;2022-11-15T00:49:45;28.48;;;13.20;;
50393;SDS011;36308;46.312;25.288;2022-11-15T00:52:11;20.45;;;10.95;;
50393;SDS011;36308;46.312;25.288;2022-11-15T00:54:36;22.80;;;12.07;;
50393;SDS011;36308;46.312;25.288;2022-11-15T00:57:01;21.50;;;11.88;;
50393;SDS011;36308;46.312;25.288;2022-11-15T00:59:27;22.75;;;12.52;;
50393;SDS011;36308;46.312;25.288;2022-11-15T01:01:52;24.65;;;13.00;;
50393;SDS011;36308;46.312;25.288;2022-11-15T01:04:18;24.17;;;12.48;;
50393;SDS011;36308;46.312;25.288;2022-11-15T01:06:43;26.42;;;13.90;;
50393;SDS011;36308;46.312;25.288;2022-11-15T01:09:09;22.52;;;12.75;;
50393;SDS011;36308;46.312;25.288;2022-11-15T01:11:34;26.60;;;13.82;;
50393;SDS011;36308;46.312;25.288;2022-11-15T01:14:00;24.42;;;12.82;;
50393;SDS011;36308;46.312;25.288;2022-11-15T01:16:25;26.15;;;13.02;;
50393;SDS011;36308;46.312;25.288;2022-11-15T01:18:50;21.75;;;12.55;;
50393;SDS011;36308;46.312;25.288;2022-11-15T01:21:17;23.77;;;12.68;;
50393;SDS011;36308;46.312;25.288;2022-11-15T01:23:44;19.98;;;11.02;;
50393;SDS011;36308;46.312;25.288;2022-11-15T01:26:10;19.92;;;11.10;;
50393;SDS011;36308;46.312;25.288;2022-11-15T01:28:38;21.35;;;10.98;;
50393;SDS011;36308;46.312;25.288;2022-11-15T01:31:12;23.90;;;12.02;;
50393;SDS011;36308;46.312;25.288;2022-11-15T01:33:41;23.63;;;12.70;;
50393;SDS011;36308;46.312;25.288;2022-11-15T01:36:16;31.88;;;15.55;;
50393;SDS011;36308;46.312;25.288;2022-11-15T01:38:44;24.98;;;13.52;;
50393;SDS011;36308;46.312;25.288;2022-11-15T01:41:17;30.70;;;14.98;;
50393;SDS011;36308;46.312;25.288;2022-11-15T01:43:46;25.27;;;13.07;;
50393;SDS011;36308;46.312;25.288;2022-11-15T01:46:25;20.77;;;11.10;;
50393;SDS011;36308;46.312;25.288;2022-11-15T01:48:55;22.08;;;10.75;;
50393;SDS011;36308;46.312;25.288;2022-11-15T01:51:25;30.35;;;13.80;;
50393;SDS011;36308;46.312;25.288;2022-11-15T01:53:55;20.42;;;9.93;;
50393;SDS011;36308;46.312;25.288;2022-11-15T01:56:27;21.27;;;9.55;;
50393;SDS011;36308;46.312;25.288;2022-11-15T01:58:55;15.93;;;8.18;;
50393;SDS011;36308;46.312;25.288;2022-11-15T02:01:23;18.35;;;9.15;;
50393;SDS011;36308;46.312;25.288;2022-11-15T02:04:01;17.17;;;8.85;;
50393;SDS011;36308;46.312;25.288;2022-11-15T02:06:52;16.20;;;9.00;;
50393;SDS011;36308;46.312;25.288;2022-11-15T02:09:18;15.75;;;8.20;;
50393;SDS011;36308;46.312;25.288;2022-11-15T02:11:44;14.57;;;8.45;;
50393;SDS011;36308;46.312;25.288;2022-11-15T02:14:12;16.20;;;8.55;;
50393;SDS011;36308;46.312;25.288;2022-11-15T02:16:59;16.75;;;9.00;;
50393;SDS011;36308;46.312;25.288;2022-11-15T02:25:03;22.30;;;11.00;;
50393;SDS011;36308;46.312;25.288;2022-11-15T02:30:45;35.85;;;17.48;;
50393;SDS011;36308;46.312;25.288;2022-11-15T02:33:21;21.23;;;11.98;;
50393;SDS011;36308;46.312;25.288;2022-11-15T02:36:11;20.08;;;10.35;;
50393;SDS011;36308;46.312;25.288;2022-11-15T02:44:01;15.40;;;8.82;;
50393;SDS011;36308;46.312;25.288;2022-11-15T02:46:42;20.90;;;8.80;;
50393;SDS011;36308;46.312;25.288;2022-11-15T02:49:32;14.30;;;7.75;;
50393;SDS011;36308;46.312;25.288;2022-11-15T02:51:59;15.73;;;7.75;;
50393;SDS011;36308;46.312;25.288;2022-11-15T02:54:28;15.77;;;8.38;;
50393;SDS011;36308;46.312;25.288;2022-11-15T02:56:57;18.20;;;8.05;;
50393;SDS011;36308;46.312;25.288;2022-11-15T03:02:25;14.93;;;8.40;;
50393;SDS011;36308;46.312;25.288;2022-11-15T03:05:04;15.65;;;7.65;;
50393;SDS011;36308;46.312;25.288;2022-11-15T03:07:35;18.02;;;8.02;;
50393;SDS011;36308;46.312;25.288;2022-11-15T03:10:10;14.95;;;7.80;;
50393;SDS011;36308;46.312;25.288;2022-11-15T03:12:45;14.75;;;8.32;;
50393;SDS011;36308;46.312;25.288;2022-11-15T03:15:18;15.15;;;8.10;;
50393;SDS011;36308;46.312;25.288;2022-11-15T03:17:56;14.35;;;7.93;;
50393;SDS011;36308;46.312;25.288;2022-11-15T03:20:25;13.02;;;7.63;;
50393;SDS011;36308;46.312;25.288;2022-11-15T03:22:52;15.93;;;8.43;;
50393;SDS011;36308;46.312;25.288;2022-11-15T03:25:21;16.73;;;8.38;;
50393;SDS011;36308;46.312;25.288;2022-11-15T03:27:50;16.73;;;8.23;;
50393;SDS011;36308;46.312;25.288;2022-11-15T03:30:19;13.90;;;7.88;;
50393;SDS011;36308;46.312;25.288;2022-11-15T03:32:50;15.13;;;8.15;;
50393;SDS011;36308;46.312;25.288;2022-11-15T03:35:24;16.05;;;8.02;;
50393;SDS011;36308;46.312;25.288;2022-11-15T03:40:40;15.90;;;8.55;;
50393;SDS011;36308;46.312;25.288;2022-11-15T03:43:11;24.23;;;10.85;;
50393;SDS011;36308;46.312;25.288;2022-11-15T03:48:55;20.80;;;10.80;;
50393;SDS011;36308;46.312;25.288;2022-11-15T03:51:29;23.77;;;11.25;;
50393;SDS011;36308;46.312;25.288;2022-11-15T03:53:55;34.65;;;16.67;;
50393;SDS011;36308;46.312;25.288;2022-11-15T03:56:20;45.78;;;24.00;;
50393;SDS011;36308;46.312;25.288;2022-11-15T03:58:45;51.78;;;24.55;;
50393;SDS011;36308;46.312;25.288;2022-11-15T04:01:11;44.47;;;20.73;;
50393;SDS011;36308;46.312;25.288;2022-11-15T04:03:36;38.33;;;21.75;;
50393;SDS011;36308;46.312;25.288;2022-11-15T04:06:02;31.48;;;16.17;;
50393;SDS011;36308;46.312;25.288;2022-11-15T04:08:27;29.60;;;17.48;;
50393;SDS011;36308;46.312;25.288;2022-11-15T04:10:53;32.45;;;16.55;;
50393;SDS011;36308;46.312;25.288;2022-11-15T04:13:18;36.50;;;18.27;;
50393;SDS011;36308;46.312;25.288;2022-11-15T04:15:43;33.40;;;17.27;;
50393;SDS011;36308;46.312;25.288;2022-11-15T04:18:09;31.65;;;16.80;;
50393;SDS011;36308;46.312;25.288;2022-11-15T04:20:34;32.30;;;15.90;;
50393;SDS011;36308;46.312;25.288;2022-11-15T04:23:19;27.80;;;15.05;;
50393;SDS011;36308;46.312;25.288;2022-11-15T04:26:05;29.00;;;15.20;;
50393;SDS011;36308;46.312;25.288;2022-11-15T04:28:36;27.80;;;14.65;;
50393;SDS011;36308;46.312;25.288;2022-11-15T04:31:25;27.20;;;14.00;;
50393;SDS011;36308;46.312;25.288;2022-11-15T04:33:50;23.95;;;13.60;;
50393;SDS011;36308;46.312;25.288;2022-11-15T04:36:16;27.80;;;15.43;;
50393;SDS011;36308;46.312;25.288;2022-11-15T04:41:25;26.92;;;14.95;;
50393;SDS011;36308;46.312;25.288;2022-11-15T04:43:50;29.65;;;15.40;;
50393;SDS011;36308;46.312;25.288;2022-11-15T04:46:16;23.95;;;13.30;;
50393;SDS011;36308;46.312;25.288;2022-11-15T04:48:42;26.58;;;12.52;;
50393;SDS011;36308;46.312;25.288;2022-11-15T04:51:07;24.85;;;13.30;;
50393;SDS011;36308;46.312;25.288;2022-11-15T04:53:32;50.25;;;27.45;;
50393;SDS011;36308;46.312;25.288;2022-11-15T04:55:58;43.13;;;24.73;;
50393;SDS011;36308;46.312;25.288;2022-11-15T04:58:23;41.33;;;24.05;;
50393;SDS011;36308;46.312;25.288;2022-11-15T05:00:49;40.10;;;22.73;;
50393;SDS011;36308;46.312;25.288;2022-11-15T05:03:14;45.53;;;24.80;;
50393;SDS011;36308;46.312;25.288;2022-11-15T05:05:58;45.85;;;24.40;;
50393;SDS011;36308;46.312;25.288;2022-11-15T05:08:24;50.05;;;28.67;;
50393;SDS011;36308;46.312;25.288;2022-11-15T05:10:50;50.15;;;27.98;;
50393;SDS011;36308;46.312;25.288;2022-11-15T05:13:15;57.63;;;34.15;;
50393;SDS011;36308;46.312;25.288;2022-11-15T05:15:41;57.05;;;32.15;;
50393;SDS011;36308;46.312;25.288;2022-11-15T05:18:06;47.10;;;27.75;;
50393;SDS011;36308;46.312;25.288;2022-11-15T05:20:32;48.40;;;25.25;;
50393;SDS011;36308;46.312;25.288;2022-11-15T05:22:57;48.88;;;24.63;;
50393;SDS011;36308;46.312;25.288;2022-11-15T05:25:23;44.33;;;25.30;;
50393;SDS011;36308;46.312;25.288;2022-11-15T05:27:48;49.70;;;29.10;;
50393;SDS011;36308;46.312;25.288;2022-11-15T05:30:14;45.55;;;26.58;;
50393;SDS011;36308;46.312;25.288;2022-11-15T05:32:40;44.08;;;25.25;;
50393;SDS011;36308;46.312;25.288;2022-11-15T05:35:06;51.90;;;27.85;;
50393;SDS011;36308;46.312;25.288;2022-11-15T05:37:33;46.78;;;29.00;;
50393;SDS011;36308;46.312;25.288;2022-11-15T05:39:59;52.47;;;30.38;;
50393;SDS011;36308;46.312;25.288;2022-11-15T05:42:24;43.55;;;24.77;;
50393;SDS011;36308;46.312;25.288;2022-11-15T05:44:51;42.80;;;25.67;;
50393;SDS011;36308;46.312;25.288;2022-11-15T05:47:19;56.05;;;30.35;;
50393;SDS011;36308;46.312;25.288;2022-11-15T05:49:47;57.30;;;29.75;;
50393;SDS011;36308;46.312;25.288;2022-11-15T05:52:15;52.60;;;28.58;;
50393;SDS011;36308;46.312;25.288;2022-11-15T05:54:44;53.42;;;26.70;;
50393;SDS011;36308;46.312;25.288;2022-11-15T05:57:09;55.33;;;30.02;;
50393;SDS011;36308;46.312;25.288;2022-11-15T05:59:35;65.05;;;30.67;;
50393;SDS011;36308;46.312;25.288;2022-11-15T06:02:01;56.92;;;29.55;;
50393;SDS011;36308;46.312;25.288;2022-11-15T06:04:26;55.60;;;28.85;;
50393;SDS011;36308;46.312;25.288;2022-11-15T06:06:52;53.75;;;26.50;;
50393;SDS011;36308;46.312;25.288;2022-11-15T06:09:17;53.28;;;26.98;;
50393;SDS011;36308;46.312;25.288;2022-11-15T06:11:43;57.20;;;26.55;;
50393;SDS011;36308;46.312;25.288;2022-11-15T06:14:08;56.67;;;30.08;;
50393;SDS011;36308;46.312;25.288;2022-11-15T06:16:34;63.47;;;29.83;;
50393;SDS011;36308;46.312;25.288;2022-11-15T06:18:59;63.97;;;35.22;;
50393;SDS011;36308;46.312;25.288;2022-11-15T06:21:24;75.03;;;41.53;;
50393;SDS011;36308;46.312;25.288;2022-11-15T06:23:52;76.53;;;44.08;;
50393;SDS011;36308;46.312;25.288;2022-11-15T06:26:18;109.40;;;60.75;;
50393;SDS011;36308;46.312;25.288;2022-11-15T06:28:44;116.03;;;67.65;;
50393;SDS011;36308;46.312;25.288;2022-11-15T06:31:09;116.22;;;67.30;;
50393;SDS011;36308;46.312;25.288;2022-11-15T06:33:37;105.65;;;62.13;;
50393;SDS011;36308;46.312;25.288;2022-11-15T06:36:06;98.70;;;56.80;;
50393;SDS011;36308;46.312;25.288;2022-11-15T06:38:34;92.53;;;49.88;;
50393;SDS011;36308;46.312;25.288;2022-11-15T06:41:07;90.82;;;52.45;;
50393;SDS011;36308;46.312;25.288;2022-11-15T06:43:34;96.60;;;53.20;;
50393;SDS011;36308;46.312;25.288;2022-11-15T06:46:00;91.00;;;50.75;;
50393;SDS011;36308;46.312;25.288;2022-11-15T06:48:27;96.30;;;57.67;;
50393;SDS011;36308;46.312;25.288;2022-11-15T06:50:54;113.80;;;61.72;;
50393;SDS011;36308;46.312;25.288;2022-11-15T06:53:21;110.30;;;63.50;;
50393;SDS011;36308;46.312;25.288;2022-11-15T06:55:47;116.00;;;66.72;;
50393;SDS011;36308;46.312;25.288;2022-11-15T06:58:12;114.63;;;67.38;;
50393;SDS011;36308;46.312;25.288;2022-11-15T07:00:38;124.13;;;70.50;;
50393;SDS011;36308;46.312;25.288;2022-11-15T07:03:04;125.40;;;72.78;;
50393;SDS011;36308;46.312;25.288;2022-11-15T07:05:29;146.38;;;87.47;;
50393;SDS011;36308;46.312;25.288;2022-11-15T07:07:56;134.50;;;79.47;;
50393;SDS011;36308;46.312;25.288;2022-11-15T07:10:23;141.20;;;84.57;;
50393;SDS011;36308;46.312;25.288;2022-11-15T07:12:50;153.25;;;92.35;;
50393;SDS011;36308;46.312;25.288;2022-11-15T07:15:16;107.28;;;62.67;;
50393;SDS011;36308;46.312;25.288;2022-11-15T07:17:42;75.50;;;45.88;;
50393;SDS011;36308;46.312;25.288;2022-11-15T07:20:08;67.60;;;39.65;;
50393;SDS011;36308;46.312;25.288;2022-11-15T07:22:34;48.22;;;30.00;;
50393;SDS011;36308;46.312;25.288;2022-11-15T07:24:59;48.97;;;29.02;;
50393;SDS011;36308;46.312;25.288;2022-11-15T07:27:24;66.30;;;37.58;;
50393;SDS011;36308;46.312;25.288;2022-11-15T07:29:50;70.32;;;38.95;;
50393;SDS011;36308;46.312;25.288;2022-11-15T07:32:15;85.05;;;50.53;;
50393;SDS011;36308;46.312;25.288;2022-11-15T07:34:41;97.07;;;53.45;;
50393;SDS011;36308;46.312;25.288;2022-11-15T07:37:06;83.70;;;48.75;;
50393;SDS011;36308;46.312;25.288;2022-11-15T07:39:31;78.25;;;45.55;;
50393;SDS011;36308;46.312;25.288;2022-11-15T07:41:57;85.78;;;53.20;;
50393;SDS011;36308;46.312;25.288;2022-11-15T07:44:41;82.95;;;49.58;;
50393;SDS011;36308;46.312;25.288;2022-11-15T07:47:06;96.57;;;54.38;;
50393;SDS011;36308;46.312;25.288;2022-11-15T07:49:32;96.32;;;56.45;;
50393;SDS011;36308;46.312;25.288;2022-11-15T07:51:57;80.85;;;48.75;;
50393;SDS011;36308;46.312;25.288;2022-11-15T07:54:22;92.13;;;52.28;;
50393;SDS011;36308;46.312;25.288;2022-11-15T07:56:48;93.00;;;55.15;;
50393;SDS011;36308;46.312;25.288;2022-11-15T07:59:13;88.97;;;52.50;;
50393;SDS011;36308;46.312;25.288;2022-11-15T08:01:39;80.18;;;47.17;;
50393;SDS011;36308;46.312;25.288;2022-11-15T08:04:04;74.05;;;44.90;;
50393;SDS011;36308;46.312;25.288;2022-11-15T08:06:29;80.82;;;46.15;;
50393;SDS011;36308;46.312;25.288;2022-11-15T08:08:55;75.03;;;44.25;;
50393;SDS011;36308;46.312;25.288;2022-11-15T08:11:20;72.25;;;44.70;;
50393;SDS011;36308;46.312;25.288;2022-11-15T08:13:46;70.40;;;42.53;;
50393;SDS011;36308;46.312;25.288;2022-11-15T08:16:11;63.88;;;39.75;;
50393;SDS011;36308;46.312;25.288;2022-11-15T08:18:37;71.78;;;41.90;;
50393;SDS011;36308;46.312;25.288;2022-11-15T08:21:02;58.05;;;36.28;;
50393;SDS011;36308;46.312;25.288;2022-11-15T08:23:29;60.03;;;35.28;;
50393;SDS011;36308;46.312;25.288;2022-11-15T08:26:01;55.90;;;33.85;;
50393;SDS011;36308;46.312;25.288;2022-11-15T08:28:28;53.17;;;32.58;;
50393;SDS011;36308;46.312;25.288;2022-11-15T08:30:54;58.80;;;34.53;;
50393;SDS011;36308;46.312;25.288;2022-11-15T08:33:19;48.90;;;30.55;;
50393;SDS011;36308;46.312;25.288;2022-11-15T08:35:45;45.85;;;27.15;;
50393;SDS011;36308;46.312;25.288;2022-11-15T08:38:11;44.13;;;27.42;;
50393;SDS011;36308;46.312;25.288;2022-11-15T08:40:36;47.05;;;29.48;;
50393;SDS011;36308;46.312;25.288;2022-11-15T08:43:02;39.30;;;25.92;;
50393;SDS011;36308;46.312;25.288;2022-11-15T08:45:28;38.45;;;23.92;;
50393;SDS011;36308;46.312;25.288;2022-11-15T08:47:54;38.67;;;22.15;;
50393;SDS011;36308;46.312;25.288;2022-11-15T08:50:20;37.67;;;21.55;;
50393;SDS011;36308;46.312;25.288;2022-11-15T08:52:45;39.78;;;25.80;;
50393;SDS011;36308;46.312;25.288;2022-11-15T08:55:13;36.10;;;21.73;;
50393;SDS011;36308;46.312;25.288;2022-11-15T08:57:38;35.35;;;21.95;;
50393;SDS011;36308;46.312;25.288;2022-11-15T09:00:04;36.58;;;21.33;;
50393;SDS011;36308;46.312;25.288;2022-11-15T09:02:30;29.08;;;18.50;;
50393;SDS011;36308;46.312;25.288;2022-11-15T09:04:55;29.90;;;18.67;;
50393;SDS011;36308;46.312;25.288;2022-11-15T09:07:21;28.38;;;16.55;;
50393;SDS011;36308;46.312;25.288;2022-11-15T09:09:46;29.00;;;17.77;;
50393;SDS011;36308;46.312;25.288;2022-11-15T09:12:11;30.15;;;15.77;;
50393;SDS011;36308;46.312;25.288;2022-11-15T09:14:37;24.58;;;15.48;;
50393;SDS011;36308;46.312;25.288;2022-11-15T09:17:03;28.15;;;18.10;;
50393;SDS011;36308;46.312;25.288;2022-11-15T09:19:28;25.33;;;15.93;;
50393;SDS011;36308;46.312;25.288;2022-11-15T09:21:54;29.35;;;15.80;;
50393;SDS011;36308;46.312;25.288;2022-11-15T09:24:19;20.98;;;12.95;;
50393;SDS011;36308;46.312;25.288;2022-11-15T09:26:46;24.55;;;13.85;;
50393;SDS011;36308;46.312;25.288;2022-11-15T09:29:11;28.50;;;16.70;;
50393;SDS011;36308;46.312;25.288;2022-11-15T09:31:36;27.70;;;16.40;;
50393;SDS011;36308;46.312;25.288;2022-11-15T09:34:02;26.38;;;17.05;;
50393;SDS011;36308;46.312;25.288;2022-11-15T09:36:27;25.25;;;16.55;;
50393;SDS011;36308;46.312;25.288;2022-11-15T09:38:53;24.67;;;15.63;;
50393;SDS011;36308;46.312;25.288;2022-11-15T09:49:14;22.38;;;15.45;;
50393;SDS011;36308;46.312;25.288;2022-11-15T09:51:42;27.70;;;15.82;;
50393;SDS011;36308;46.312;25.288;2022-11-15T09:57:04;26.95;;;15.82;;
50393;SDS011;36308;46.312;25.288;2022-11-15T09:59:43;27.25;;;16.48;;
50393;SDS011;36308;46.312;25.288;2022-11-15T10:02:30;23.60;;;14.00;;
50393;SDS011;36308;46.312;25.288;2022-11-15T10:05:07;23.77;;;15.48;;
50393;SDS011;36308;46.312;25.288;2022-11-15T10:10:43;21.02;;;15.48;;
50393;SDS011;36308;46.312;25.288;2022-11-15T10:13:13;21.65;;;13.68;;
50393;SDS011;36308;46.312;25.288;2022-11-15T10:15:46;20.02;;;11.43;;
50393;SDS011;36308;46.312;25.288;2022-11-15T10:23:18;17.55;;;10.75;;
50393;SDS011;36308;46.312;25.288;2022-11-15T10:25:46;16.15;;;10.18;;
50393;SDS011;36308;46.312;25.288;2022-11-15T10:30:42;14.82;;;10.30;;
50393;SDS011;36308;46.312;25.288;2022-11-15T10:33:23;16.27;;;9.38;;
50393;SDS011;36308;46.312;25.288;2022-11-15T10:38:51;10.30;;;6.65;;
50393;SDS011;36308;46.312;25.288;2022-11-15T10:41:39;10.38;;;6.50;;
50393;SDS011;36308;46.312;25.288;2022-11-15T10:44:11;12.02;;;8.02;;
50393;SDS011;36308;46.312;25.288;2022-11-15T10:46:38;18.80;;;11.23;;
50393;SDS011;36308;46.312;25.288;2022-11-15T10:49:16;12.43;;;8.07;;
50393;SDS011;36308;46.312;25.288;2022-11-15T10:51:47;14.25;;;7.95;;
50393;SDS011;36308;46.312;25.288;2022-11-15T10:54:33;12.80;;;7.30;;
50393;SDS011;36308;46.312;25.288;2022-11-15T10:57:48;12.23;;;7.70;;
50393;SDS011;36308;46.312;25.288;2022-11-15T11:00:03;12.25;;;7.50;;
50393;SDS011;36308;46.312;25.288;2022-11-15T11:02:36;10.95;;;7.22;;
50393;SDS011;36308;46.312;25.288;2022-11-15T11:05:05;10.07;;;6.05;;
50393;SDS011;36308;46.312;25.288;2022-11-15T11:07:55;12.13;;;6.13;;
50393;SDS011;36308;46.312;25.288;2022-11-15T11:10:22;10.90;;;6.38;;
50393;SDS011;36308;46.312;25.288;2022-11-15T11:12:48;11.18;;;6.80;;
50393;SDS011;36308;46.312;25.288;2022-11-15T11:15:14;14.90;;;6.28;;
50393;SDS011;36308;46.312;25.288;2022-11-15T11:20:26;10.05;;;5.80;;
50393;SDS011;36308;46.312;25.288;2022-11-15T11:33:43;7.60;;;4.07;;
50393;SDS011;36308;46.312;25.288;2022-11-15T11:47:28;10.25;;;4.05;;
50393;SDS011;36308;46.312;25.288;2022-11-15T11:49:51;6.90;;;4.07;;
50393;SDS011;36308;46.312;25.288;2022-11-15T12:00:15;8.07;;;4.30;;
50393;SDS011;36308;46.312;25.288;2022-11-15T12:03:00;9.95;;;5.40;;
50393;SDS011;36308;46.312;25.288;2022-11-15T12:05:38;8.48;;;4.63;;
50393;SDS011;36308;46.312;25.288;2022-11-15T12:10:53;5.80;;;4.03;;
50393;SDS011;36308;46.312;25.288;2022-11-15T12:13:40;8.90;;;5.13;;
50393;SDS011;36308;46.312;25.288;2022-11-15T12:18:40;6.90;;;4.47;;
50393;SDS011;36308;46.312;25.288;2022-11-15T12:21:16;6.88;;;3.47;;
50393;SDS011;36308;46.312;25.288;2022-11-15T12:24:00;6.65;;;4.07;;
50393;SDS011;36308;46.312;25.288;2022-11-15T12:26:41;6.32;;;3.67;;
50393;SDS011;36308;46.312;25.288;2022-11-15T12:29:33;4.57;;;2.90;;
50393;SDS011;36308;46.312;25.288;2022-11-15T12:32:04;5.35;;;3.65;;
50393;SDS011;36308;46.312;25.288;2022-11-15T12:34:43;3.95;;;3.13;;
50393;SDS011;36308;46.312;25.288;2022-11-15T12:40:04;5.35;;;3.25;;
50393;SDS011;36308;46.312;25.288;2022-11-15T13:01:08;9.10;;;5.70;;
50393;SDS011;36308;46.312;25.288;2022-11-15T13:03:35;7.07;;;4.22;;
50393;SDS011;36308;46.312;25.288;2022-11-15T13:06:36;6.90;;;3.53;;
50393;SDS011;36308;46.312;25.288;2022-11-15T13:11:50;11.93;;;6.60;;
50393;SDS011;36308;46.312;25.288;2022-11-15T13:14:50;12.98;;;6.53;;
50393;SDS011;36308;46.312;25.288;2022-11-15T13:17:27;8.00;;;4.82;;
50393;SDS011;36308;46.312;25.288;2022-11-15T13:19:59;12.05;;;7.75;;
50393;SDS011;36308;46.312;25.288;2022-11-15T13:22:26;15.80;;;6.00;;
50393;SDS011;36308;46.312;25.288;2022-11-15T13:30:40;9.77;;;4.97;;
50393;SDS011;36308;46.312;25.288;2022-11-15T13:33:17;14.30;;;7.63;;
50393;SDS011;36308;46.312;25.288;2022-11-15T13:35:46;13.50;;;5.63;;
50393;SDS011;36308;46.312;25.288;2022-11-15T13:40:49;12.40;;;7.03;;
50393;SDS011;36308;46.312;25.288;2022-11-15T13:48:44;19.95;;;7.38;;
50393;SDS011;36308;46.312;25.288;2022-11-15T13:51:18;14.27;;;8.30;;
50393;SDS011;36308;46.312;25.288;2022-11-15T13:53:53;15.35;;;7.70;;
50393;SDS011;36308;46.312;25.288;2022-11-15T13:56:28;27.58;;;11.57;;
50393;SDS011;36308;46.312;25.288;2022-11-15T13:58:57;31.55;;;11.68;;
50393;SDS011;36308;46.312;25.288;2022-11-15T14:01:22;26.15;;;10.95;;
50393;SDS011;36308;46.312;25.288;2022-11-15T14:03:56;25.30;;;9.23;;
50393;SDS011;36308;46.312;25.288;2022-11-15T14:06:27;17.38;;;8.40;;
50393;SDS011;36308;46.312;25.288;2022-11-15T14:09:02;14.68;;;7.60;;
50393;SDS011;36308;46.312;25.288;2022-11-15T14:11:28;13.00;;;6.35;;
50393;SDS011;36308;46.312;25.288;2022-11-15T14:13:59;20.08;;;7.22;;
50393;SDS011;36308;46.312;25.288;2022-11-15T14:16:36;14.07;;;6.85;;
50393;SDS011;36308;46.312;25.288;2022-11-15T14:19:08;19.52;;;9.98;;
50393;SDS011;36308;46.312;25.288;2022-11-15T14:24:35;20.55;;;9.65;;
50393;SDS011;36308;46.312;25.288;2022-11-15T14:27:21;14.18;;;7.20;;
50393;SDS011;36308;46.312;25.288;2022-11-15T14:29:51;9.23;;;6.32;;
50393;SDS011;36308;46.312;25.288;2022-11-15T14:32:21;12.63;;;7.18;;
50393;SDS011;36308;46.312;25.288;2022-11-15T14:34:56;10.02;;;6.80;;
50393;SDS011;36308;46.312;25.288;2022-11-15T14:37:33;10.23;;;7.13;;
50393;SDS011;36308;46.312;25.288;2022-11-15T14:40:00;14.35;;;7.88;;
50393;SDS011;36308;46.312;25.288;2022-11-15T14:42:29;15.13;;;8.13;;
50393;SDS011;36308;46.312;25.288;2022-11-15T14:44:54;31.27;;;25.15;;
50393;SDS011;36308;46.312;25.288;2022-11-15T14:47:20;43.45;;;30.85;;
50393;SDS011;36308;46.312;25.288;2022-11-15T14:49:46;17.88;;;13.77;;
50393;SDS011;36308;46.312;25.288;2022-11-15T14:54:50;94.07;;;68.40;;
50393;SDS011;36308;46.312;25.288;2022-11-15T14:57:15;87.03;;;45.30;;
50393;SDS011;36308;46.312;25.288;2022-11-15T14:59:40;141.05;;;68.60;;
50393;SDS011;36308;46.312;25.288;2022-11-15T15:03:18;146.48;;;69.53;;
50393;SDS011;36308;46.312;25.288;2022-11-15T15:05:44;106.75;;;52.05;;
50393;SDS011;36308;46.312;25.288;2022-11-15T15:08:09;144.45;;;68.60;;
50393;SDS011;36308;46.312;25.288;2022-11-15T15:10:36;197.27;;;92.90;;
50393;SDS011;36308;46.312;25.288;2022-11-15T15:13:05;155.40;;;75.05;;
50393;SDS011;36308;46.312;25.288;2022-11-15T15:15:36;211.82;;;104.47;;
50393;SDS011;36308;46.312;25.288;2022-11-15T15:18:03;207.32;;;106.80;;
50393;SDS011;36308;46.312;25.288;2022-11-15T15:20:30;129.70;;;75.22;;
50393;SDS011;36308;46.312;25.288;2022-11-15T15:22:57;64.85;;;42.25;;
50393;SDS011;36308;46.312;25.288;2022-11-15T15:25:30;76.65;;;47.45;;
50393;SDS011;36308;46.312;25.288;2022-11-15T15:27:58;53.80;;;37.42;;
50393;SDS011;36308;46.312;25.288;2022-11-15T15:30:24;61.95;;;41.55;;
50393;SDS011;36308;46.312;25.288;2022-11-15T15:32:51;73.65;;;47.63;;
50393;SDS011;36308;46.312;25.288;2022-11-15T15:35:16;69.72;;;46.42;;
50393;SDS011;36308;46.312;25.288;2022-11-15T15:37:43;78.65;;;51.03;;
50393;SDS011;36308;46.312;25.288;2022-11-15T15:40:12;55.35;;;34.53;;
50393;SDS011;36308;46.312;25.288;2022-11-15T15:42:43;60.50;;;41.20;;
50393;SDS011;36308;46.312;25.288;2022-11-15T15:45:09;57.58;;;38.17;;
50393;SDS011;36308;46.312;25.288;2022-11-15T15:47:35;98.05;;;58.25;;
50393;SDS011;36308;46.312;25.288;2022-11-15T15:50:02;105.75;;;62.10;;
50393;SDS011;36308;46.312;25.288;2022-11-15T15:52:29;82.72;;;51.50;;
50393;SDS011;36308;46.312;25.288;2022-11-15T15:54:54;67.95;;;44.00;;
50393;SDS011;36308;46.312;25.288;2022-11-15T15:57:19;61.75;;;39.22;;
50393;SDS011;36308;46.312;25.288;2022-11-15T15:59:45;53.53;;;33.25;;
50393;SDS011;36308;46.312;25.288;2022-11-15T16:02:11;64.32;;;38.90;;
50393;SDS011;36308;46.312;25.288;2022-11-15T16:04:37;52.85;;;33.33;;
50393;SDS011;36308;46.312;25.288;2022-11-15T16:07:03;59.88;;;37.58;;
50393;SDS011;36308;46.312;25.288;2022-11-15T16:09:29;63.47;;;40.58;;
50393;SDS011;36308;46.312;25.288;2022-11-15T16:12:13;51.50;;;33.33;;
50393;SDS011;36308;46.312;25.288;2022-11-15T16:14:39;46.88;;;30.88;;
50393;SDS011;36308;46.312;25.288;2022-11-15T16:17:04;60.30;;;37.08;;
50393;SDS011;36308;46.312;25.288;2022-11-15T16:19:30;68.47;;;41.42;;
50393;SDS011;36308;46.312;25.288;2022-11-15T16:21:56;61.85;;;40.05;;
50393;SDS011;36308;46.312;25.288;2022-11-15T16:24:21;53.17;;;32.75;;
50393;SDS011;36308;46.312;25.288;2022-11-15T16:26:47;52.13;;;33.63;;
50393;SDS011;36308;46.312;25.288;2022-11-15T16:29:15;73.90;;;44.10;;
50393;SDS011;36308;46.312;25.288;2022-11-15T16:31:40;84.50;;;51.22;;
50393;SDS011;36308;46.312;25.288;2022-11-15T16:34:06;112.47;;;65.00;;